sensor_id;sensor_type;location;lat;lon;timestamp;P1;durP1;ratioP1;P2;durP2;ratioP2
25045;SDS011;13044;49.304;12.840;2023-08-07T00:02:04;0.68;;;0.32;;
25045;SDS011;13044;49.304;12.840;2023-08-07T00:04:33;0.60;;;0.40;;
25045;SDS011;13044;49.304;12.840;2023-08-07T00:06:59;0.50;;;0.50;;
25045;SDS011;13044;49.304;12.840;2023-08-07T00:09:26;1.08;;;0.60;;
25045;SDS011;13044;49.304;12.840;2023-08-07T00:11:53;0.93;;;0.82;;
25045;SDS011;13044;49.304;12.840;2023-08-07T00:14:20;1.75;;;0.70;;
25045;SDS011;13044;49.304;12.840;2023-08-07T00:16:47;0.60;;;0.50;;
25045;SDS011;13044;49.304;12.840;2023-08-07T00:19:14;0.52;;;0.52;;
25045;SDS011;13044;49.304;12.840;2023-08-07T00:21:41;0.40;;;0.40;;
25045;SDS011;13044;49.304;12.840;2023-08-07T00:24:08;0.52;;;0.52;;
25045;SDS011;13044;49.304;12.840;2023-08-07T00:26:35;0.88;;;0.82;;
25045;SDS011;13044;49.304;12.840;2023-08-07T00:29:02;0.85;;;0.65;;
25045;SDS011;13044;49.304;12.840;2023-08-07T00:31:29;0.45;;;0.45;;
25045;SDS011;13044;49.304;12.840;2023-08-07T00:33:58;0.60;;;0.40;;
25045;SDS011;13044;49.304;12.840;2023-08-07T00:36:26;0.43;;;0.43;;
25045;SDS011;13044;49.304;12.840;2023-08-07T00:38:55;1.17;;;0.63;;
25045;SDS011;13044;49.304;12.840;2023-08-07T00:41:22;0.75;;;0.50;;
25045;SDS011;13044;49.304;12.840;2023-08-07T00:43:49;0.68;;;0.55;;
25045;SDS011;13044;49.304;12.840;2023-08-07T00:46:16;1.55;;;0.65;;
25045;SDS011;13044;49.304;12.840;2023-08-07T00:48:44;0.93;;;0.40;;
25045;SDS011;13044;49.304;12.840;2023-08-07T00:51:12;0.57;;;0.43;;
25045;SDS011;13044;49.304;12.840;2023-08-07T00:53:39;0.50;;;0.50;;
25045;SDS011;13044;49.304;12.840;2023-08-07T00:56:06;1.20;;;0.50;;
25045;SDS011;13044;49.304;12.840;2023-08-07T00:58:34;3.20;;;0.57;;
25045;SDS011;13044;49.304;12.840;2023-08-07T01:01:01;0.93;;;0.40;;
25045;SDS011;13044;49.304;12.840;2023-08-07T01:03:28;0.47;;;0.47;;
25045;SDS011;13044;49.304;12.840;2023-08-07T01:05:55;2.45;;;0.50;;
25045;SDS011;13044;49.304;12.840;2023-08-07T01:08:25;0.55;;;0.55;;
25045;SDS011;13044;49.304;12.840;2023-08-07T01:17:16;1.23;;;0.50;;
25045;SDS011;13044;49.304;12.840;2023-08-07T01:19:46;0.93;;;0.50;;
25045;SDS011;13044;49.304;12.840;2023-08-07T01:22:14;0.20;;;0.20;;
25045;SDS011;13044;49.304;12.840;2023-08-07T01:24:44;0.73;;;0.40;;
25045;SDS011;13044;49.304;12.840;2023-08-07T01:27:23;1.45;;;0.50;;
25045;SDS011;13044;49.304;12.840;2023-08-07T01:30:09;0.30;;;0.30;;
25045;SDS011;13044;49.304;12.840;2023-08-07T01:32:47;0.30;;;0.30;;
25045;SDS011;13044;49.304;12.840;2023-08-07T01:35:53;0.45;;;0.40;;
25045;SDS011;13044;49.304;12.840;2023-08-07T01:38:23;0.30;;;0.30;;
25045;SDS011;13044;49.304;12.840;2023-08-07T01:40:52;0.30;;;0.30;;
25045;SDS011;13044;49.304;12.840;2023-08-07T01:43:20;0.22;;;0.22;;
25045;SDS011;13044;49.304;12.840;2023-08-07T01:45:47;0.57;;;0.20;;
25045;SDS011;13044;49.304;12.840;2023-08-07T01:48:14;0.98;;;0.30;;
25045;SDS011;13044;49.304;12.840;2023-08-07T01:50:41;0.30;;;0.30;;
25045;SDS011;13044;49.304;12.840;2023-08-07T01:53:08;0.30;;;0.30;;
25045;SDS011;13044;49.304;12.840;2023-08-07T01:55:35;0.40;;;0.30;;
25045;SDS011;13044;49.304;12.840;2023-08-07T01:58:01;0.25;;;0.25;;
25045;SDS011;13044;49.304;12.840;2023-08-07T02:00:28;1.30;;;0.35;;
25045;SDS011;13044;49.304;12.840;2023-08-07T02:02:56;0.22;;;0.22;;
25045;SDS011;13044;49.304;12.840;2023-08-07T02:05:23;0.38;;;0.38;;
25045;SDS011;13044;49.304;12.840;2023-08-07T02:07:50;0.10;;;0.10;;
25045;SDS011;13044;49.304;12.840;2023-08-07T02:10:17;0.25;;;0.25;;
25045;SDS011;13044;49.304;12.840;2023-08-07T02:12:43;0.20;;;0.20;;
25045;SDS011;13044;49.304;12.840;2023-08-07T02:15:10;0.10;;;0.10;;
25045;SDS011;13044;49.304;12.840;2023-08-07T02:17:37;0.30;;;0.20;;
25045;SDS011;13044;49.304;12.840;2023-08-07T02:20:07;2.17;;;0.22;;
25045;SDS011;13044;49.304;12.840;2023-08-07T02:22:35;0.20;;;0.20;;
25045;SDS011;13044;49.304;12.840;2023-08-07T02:25:02;0.65;;;0.20;;
25045;SDS011;13044;49.304;12.840;2023-08-07T02:27:29;0.10;;;0.10;;
25045;SDS011;13044;49.304;12.840;2023-08-07T02:29:56;0.20;;;0.20;;
25045;SDS011;13044;49.304;12.840;2023-08-07T02:32:22;0.17;;;0.10;;
25045;SDS011;13044;49.304;12.840;2023-08-07T02:34:49;0.20;;;0.20;;
25045;SDS011;13044;49.304;12.840;2023-08-07T02:37:16;1.48;;;0.10;;
25045;SDS011;13044;49.304;12.840;2023-08-07T02:39:44;0.35;;;0.20;;
25045;SDS011;13044;49.304;12.840;2023-08-07T02:42:10;0.25;;;0.15;;
25045;SDS011;13044;49.304;12.840;2023-08-07T02:44:37;0.45;;;0.20;;
25045;SDS011;13044;49.304;12.840;2023-08-07T02:47:04;0.25;;;0.20;;
25045;SDS011;13044;49.304;12.840;2023-08-07T02:49:32;0.43;;;0.10;;
25045;SDS011;13044;49.304;12.840;2023-08-07T02:51:59;0.10;;;0.10;;
25045;SDS011;13044;49.304;12.840;2023-08-07T02:54:26;0.22;;;0.10;;
25045;SDS011;13044;49.304;12.840;2023-08-07T02:56:52;0.10;;;0.10;;
25045;SDS011;13044;49.304;12.840;2023-08-07T02:59:20;0.10;;;0.10;;
25045;SDS011;13044;49.304;12.840;2023-08-07T03:01:47;0.10;;;0.10;;
25045;SDS011;13044;49.304;12.840;2023-08-07T03:04:13;0.10;;;0.10;;
25045;SDS011;13044;49.304;12.840;2023-08-07T03:06:40;1.23;;;0.20;;
25045;SDS011;13044;49.304;12.840;2023-08-07T03:09:07;0.10;;;0.10;;
25045;SDS011;13044;49.304;12.840;2023-08-07T03:11:34;0.10;;;0.10;;
25045;SDS011;13044;49.304;12.840;2023-08-07T03:14:01;0.15;;;0.10;;
25045;SDS011;13044;49.304;12.840;2023-08-07T03:16:29;0.68;;;0.10;;
25045;SDS011;13044;49.304;12.840;2023-08-07T03:18:56;0.35;;;0.10;;
25045;SDS011;13044;49.304;12.840;2023-08-07T03:21:23;1.55;;;0.20;;
25045;SDS011;13044;49.304;12.840;2023-08-07T03:23:50;1.63;;;0.40;;
25045;SDS011;13044;49.304;12.840;2023-08-07T03:26:17;0.10;;;0.10;;
25045;SDS011;13044;49.304;12.840;2023-08-07T03:28:45;0.10;;;0.10;;
25045;SDS011;13044;49.304;12.840;2023-08-07T03:31:16;0.15;;;0.15;;
25045;SDS011;13044;49.304;12.840;2023-08-07T03:33:43;0.00;;;0.00;;
25045;SDS011;13044;49.304;12.840;2023-08-07T03:36:10;0.63;;;0.30;;
25045;SDS011;13044;49.304;12.840;2023-08-07T03:38:37;0.10;;;0.10;;
25045;SDS011;13044;49.304;12.840;2023-08-07T03:41:04;0.08;;;0.08;;
25045;SDS011;13044;49.304;12.840;2023-08-07T03:43:31;0.20;;;0.10;;
25045;SDS011;13044;49.304;12.840;2023-08-07T03:45:58;0.28;;;0.20;;
25045;SDS011;13044;49.304;12.840;2023-08-07T03:48:29;0.10;;;0.10;;
25045;SDS011;13044;49.304;12.840;2023-08-07T03:51:03;0.10;;;0.10;;
25045;SDS011;13044;49.304;12.840;2023-08-07T03:53:34;0.10;;;0.10;;
25045;SDS011;13044;49.304;12.840;2023-08-07T03:56:01;0.65;;;0.43;;
25045;SDS011;13044;49.304;12.840;2023-08-07T03:58:29;1.20;;;0.17;;
25045;SDS011;13044;49.304;12.840;2023-08-07T04:00:56;0.17;;;0.17;;
25045;SDS011;13044;49.304;12.840;2023-08-07T04:03:23;0.20;;;0.20;;
25045;SDS011;13044;49.304;12.840;2023-08-07T04:05:53;0.15;;;0.15;;
25045;SDS011;13044;49.304;12.840;2023-08-07T04:08:22;1.27;;;0.35;;
25045;SDS011;13044;49.304;12.840;2023-08-07T04:13:30;0.10;;;0.10;;
25045;SDS011;13044;49.304;12.840;2023-08-07T04:15:58;1.45;;;0.10;;
25045;SDS011;13044;49.304;12.840;2023-08-07T04:18:27;0.10;;;0.10;;
25045;SDS011;13044;49.304;12.840;2023-08-07T04:20:54;0.10;;;0.10;;
25045;SDS011;13044;49.304;12.840;2023-08-07T04:23:22;0.10;;;0.10;;
25045;SDS011;13044;49.304;12.840;2023-08-07T04:25:50;0.20;;;0.20;;
25045;SDS011;13044;49.304;12.840;2023-08-07T04:28:18;0.10;;;0.10;;
25045;SDS011;13044;49.304;12.840;2023-08-07T04:30:47;0.10;;;0.10;;
25045;SDS011;13044;49.304;12.840;2023-08-07T04:33:17;0.28;;;0.13;;
25045;SDS011;13044;49.304;12.840;2023-08-07T04:35:45;0.52;;;0.10;;
25045;SDS011;13044;49.304;12.840;2023-08-07T04:38:16;0.28;;;0.10;;
25045;SDS011;13044;49.304;12.840;2023-08-07T04:40:46;0.32;;;0.22;;
25045;SDS011;13044;49.304;12.840;2023-08-07T04:43:14;0.10;;;0.10;;
25045;SDS011;13044;49.304;12.840;2023-08-07T04:45:43;0.10;;;0.10;;
25045;SDS011;13044;49.304;12.840;2023-08-07T04:48:12;0.10;;;0.10;;
25045;SDS011;13044;49.304;12.840;2023-08-07T04:50:39;0.10;;;0.10;;
25045;SDS011;13044;49.304;12.840;2023-08-07T04:53:07;0.20;;;0.13;;
25045;SDS011;13044;49.304;12.840;2023-08-07T04:55:33;0.03;;;0.03;;
25045;SDS011;13044;49.304;12.840;2023-08-07T04:58:00;0.05;;;0.05;;
25045;SDS011;13044;49.304;12.840;2023-08-07T05:00:27;0.10;;;0.10;;
25045;SDS011;13044;49.304;12.840;2023-08-07T05:02:55;0.60;;;0.20;;
25045;SDS011;13044;49.304;12.840;2023-08-07T05:05:22;0.10;;;0.10;;
25045;SDS011;13044;49.304;12.840;2023-08-07T05:07:50;0.20;;;0.20;;
25045;SDS011;13044;49.304;12.840;2023-08-07T05:10:17;0.10;;;0.10;;
25045;SDS011;13044;49.304;12.840;2023-08-07T05:12:44;0.30;;;0.20;;
25045;SDS011;13044;49.304;12.840;2023-08-07T05:15:11;0.30;;;0.20;;
25045;SDS011;13044;49.304;12.840;2023-08-07T05:17:38;0.40;;;0.15;;
25045;SDS011;13044;49.304;12.840;2023-08-07T05:20:05;0.10;;;0.10;;
25045;SDS011;13044;49.304;12.840;2023-08-07T05:22:34;0.10;;;0.10;;
25045;SDS011;13044;49.304;12.840;2023-08-07T05:25:01;0.20;;;0.20;;
25045;SDS011;13044;49.304;12.840;2023-08-07T05:27:28;0.10;;;0.10;;
25045;SDS011;13044;49.304;12.840;2023-08-07T05:29:55;0.40;;;0.20;;
25045;SDS011;13044;49.304;12.840;2023-08-07T05:32:22;0.95;;;0.20;;
25045;SDS011;13044;49.304;12.840;2023-08-07T05:34:49;0.30;;;0.10;;
25045;SDS011;13044;49.304;12.840;2023-08-07T05:37:16;0.10;;;0.10;;
25045;SDS011;13044;49.304;12.840;2023-08-07T05:39:43;1.25;;;0.15;;
25045;SDS011;13044;49.304;12.840;2023-08-07T05:42:10;0.13;;;0.13;;
25045;SDS011;13044;49.304;12.840;2023-08-07T05:44:38;0.20;;;0.20;;
25045;SDS011;13044;49.304;12.840;2023-08-07T05:47:05;0.22;;;0.22;;
25045;SDS011;13044;49.304;12.840;2023-08-07T05:49:33;0.20;;;0.10;;
25045;SDS011;13044;49.304;12.840;2023-08-07T05:51:59;0.20;;;0.20;;
25045;SDS011;13044;49.304;12.840;2023-08-07T05:54:26;0.20;;;0.20;;
25045;SDS011;13044;49.304;12.840;2023-08-07T05:56:53;0.77;;;0.40;;
25045;SDS011;13044;49.304;12.840;2023-08-07T05:59:20;0.10;;;0.10;;
25045;SDS011;13044;49.304;12.840;2023-08-07T06:01:47;1.48;;;0.13;;
25045;SDS011;13044;49.304;12.840;2023-08-07T06:04:14;0.28;;;0.20;;
25045;SDS011;13044;49.304;12.840;2023-08-07T06:06:41;0.17;;;0.17;;
25045;SDS011;13044;49.304;12.840;2023-08-07T06:09:09;1.80;;;0.40;;
25045;SDS011;13044;49.304;12.840;2023-08-07T06:11:36;0.30;;;0.28;;
25045;SDS011;13044;49.304;12.840;2023-08-07T06:14:03;0.20;;;0.20;;
25045;SDS011;13044;49.304;12.840;2023-08-07T06:16:30;0.20;;;0.20;;
25045;SDS011;13044;49.304;12.840;2023-08-07T06:18:57;0.20;;;0.20;;
25045;SDS011;13044;49.304;12.840;2023-08-07T06:21:24;0.55;;;0.20;;
25045;SDS011;13044;49.304;12.840;2023-08-07T06:23:51;0.20;;;0.20;;
25045;SDS011;13044;49.304;12.840;2023-08-07T06:26:18;0.10;;;0.10;;
25045;SDS011;13044;49.304;12.840;2023-08-07T06:28:45;0.43;;;0.20;;
25045;SDS011;13044;49.304;12.840;2023-08-07T06:31:12;0.20;;;0.20;;
25045;SDS011;13044;49.304;12.840;2023-08-07T06:33:39;0.68;;;0.28;;
25045;SDS011;13044;49.304;12.840;2023-08-07T06:36:06;0.30;;;0.30;;
25045;SDS011;13044;49.304;12.840;2023-08-07T06:38:35;0.20;;;0.10;;
25045;SDS011;13044;49.304;12.840;2023-08-07T06:41:02;0.30;;;0.30;;
25045;SDS011;13044;49.304;12.840;2023-08-07T06:43:30;0.47;;;0.20;;
25045;SDS011;13044;49.304;12.840;2023-08-07T06:45:57;0.20;;;0.20;;
25045;SDS011;13044;49.304;12.840;2023-08-07T06:48:25;0.20;;;0.20;;
25045;SDS011;13044;49.304;12.840;2023-08-07T06:50:52;0.57;;;0.30;;
25045;SDS011;13044;49.304;12.840;2023-08-07T06:53:19;0.43;;;0.20;;
25045;SDS011;13044;49.304;12.840;2023-08-07T06:55:46;0.32;;;0.20;;
25045;SDS011;13044;49.304;12.840;2023-08-07T06:58:13;0.20;;;0.20;;
25045;SDS011;13044;49.304;12.840;2023-08-07T07:00:40;0.17;;;0.17;;
25045;SDS011;13044;49.304;12.840;2023-08-07T07:03:07;0.30;;;0.30;;
25045;SDS011;13044;49.304;12.840;2023-08-07T07:05:36;0.22;;;0.22;;
25045;SDS011;13044;49.304;12.840;2023-08-07T07:08:03;0.95;;;0.43;;
25045;SDS011;13044;49.304;12.840;2023-08-07T07:10:30;0.20;;;0.20;;
25045;SDS011;13044;49.304;12.840;2023-08-07T07:12:57;0.20;;;0.20;;
25045;SDS011;13044;49.304;12.840;2023-08-07T07:15:24;0.75;;;0.30;;
25045;SDS011;13044;49.304;12.840;2023-08-07T07:17:51;1.00;;;0.32;;
25045;SDS011;13044;49.304;12.840;2023-08-07T07:20:19;0.25;;;0.25;;
25045;SDS011;13044;49.304;12.840;2023-08-07T07:22:46;0.47;;;0.40;;
25045;SDS011;13044;49.304;12.840;2023-08-07T07:25:13;0.57;;;0.40;;
25045;SDS011;13044;49.304;12.840;2023-08-07T07:27:40;0.45;;;0.40;;
25045;SDS011;13044;49.304;12.840;2023-08-07T07:30:07;0.63;;;0.50;;
25045;SDS011;13044;49.304;12.840;2023-08-07T07:32:35;0.65;;;0.40;;
25045;SDS011;13044;49.304;12.840;2023-08-07T07:35:02;0.85;;;0.60;;
25045;SDS011;13044;49.304;12.840;2023-08-07T07:37:30;0.60;;;0.60;;
25045;SDS011;13044;49.304;12.840;2023-08-07T07:39:57;0.52;;;0.52;;
25045;SDS011;13044;49.304;12.840;2023-08-07T07:42:24;1.40;;;0.70;;
25045;SDS011;13044;49.304;12.840;2023-08-07T07:44:51;0.80;;;0.35;;
25045;SDS011;13044;49.304;12.840;2023-08-07T07:47:18;0.38;;;0.38;;
25045;SDS011;13044;49.304;12.840;2023-08-07T07:49:46;0.43;;;0.32;;
25045;SDS011;13044;49.304;12.840;2023-08-07T07:52:16;0.30;;;0.30;;
25045;SDS011;13044;49.304;12.840;2023-08-07T07:54:43;0.20;;;0.20;;
25045;SDS011;13044;49.304;12.840;2023-08-07T07:57:09;1.13;;;0.47;;
25045;SDS011;13044;49.304;12.840;2023-08-07T07:59:36;0.90;;;0.40;;
25045;SDS011;13044;49.304;12.840;2023-08-07T08:02:03;0.60;;;0.60;;
25045;SDS011;13044;49.304;12.840;2023-08-07T08:04:30;0.55;;;0.55;;
25045;SDS011;13044;49.304;12.840;2023-08-07T08:06:58;0.30;;;0.30;;
25045;SDS011;13044;49.304;12.840;2023-08-07T08:09:25;0.40;;;0.40;;
25045;SDS011;13044;49.304;12.840;2023-08-07T08:11:52;0.60;;;0.30;;
25045;SDS011;13044;49.304;12.840;2023-08-07T08:14:19;0.57;;;0.50;;
25045;SDS011;13044;49.304;12.840;2023-08-07T08:16:48;0.68;;;0.45;;
25045;SDS011;13044;49.304;12.840;2023-08-07T08:19:16;0.70;;;0.40;;
25045;SDS011;13044;49.304;12.840;2023-08-07T08:21:43;0.52;;;0.30;;
25045;SDS011;13044;49.304;12.840;2023-08-07T08:24:10;0.52;;;0.52;;
25045;SDS011;13044;49.304;12.840;2023-08-07T08:26:37;0.80;;;0.40;;
25045;SDS011;13044;49.304;12.840;2023-08-07T08:29:05;0.80;;;0.60;;
25045;SDS011;13044;49.304;12.840;2023-08-07T08:31:34;0.90;;;0.55;;
25045;SDS011;13044;49.304;12.840;2023-08-07T08:34:01;1.50;;;0.43;;
25045;SDS011;13044;49.304;12.840;2023-08-07T08:36:28;0.45;;;0.45;;
25045;SDS011;13044;49.304;12.840;2023-08-07T08:38:54;1.38;;;0.85;;
25045;SDS011;13044;49.304;12.840;2023-08-07T08:41:21;0.52;;;0.43;;
25045;SDS011;13044;49.304;12.840;2023-08-07T08:43:49;0.30;;;0.30;;
25045;SDS011;13044;49.304;12.840;2023-08-07T08:46:21;0.30;;;0.30;;
25045;SDS011;13044;49.304;12.840;2023-08-07T08:48:51;0.60;;;0.60;;
25045;SDS011;13044;49.304;12.840;2023-08-07T08:51:25;0.63;;;0.60;;
25045;SDS011;13044;49.304;12.840;2023-08-07T08:53:52;2.60;;;0.65;;
25045;SDS011;13044;49.304;12.840;2023-08-07T08:56:20;1.48;;;0.90;;
25045;SDS011;13044;49.304;12.840;2023-08-07T08:58:49;0.52;;;0.52;;
25045;SDS011;13044;49.304;12.840;2023-08-07T09:01:17;0.60;;;0.60;;
25045;SDS011;13044;49.304;12.840;2023-08-07T09:03:45;0.55;;;0.43;;
25045;SDS011;13044;49.304;12.840;2023-08-07T09:06:12;0.40;;;0.40;;
25045;SDS011;13044;49.304;12.840;2023-08-07T09:08:40;0.47;;;0.47;;
25045;SDS011;13044;49.304;12.840;2023-08-07T09:11:12;0.50;;;0.50;;
25045;SDS011;13044;49.304;12.840;2023-08-07T09:13:40;0.57;;;0.57;;
25045;SDS011;13044;49.304;12.840;2023-08-07T09:16:09;0.50;;;0.50;;
25045;SDS011;13044;49.304;12.840;2023-08-07T09:18:37;0.40;;;0.40;;
25045;SDS011;13044;49.304;12.840;2023-08-07T09:21:04;0.40;;;0.40;;
25045;SDS011;13044;49.304;12.840;2023-08-07T09:23:31;2.25;;;0.57;;
25045;SDS011;13044;49.304;12.840;2023-08-07T09:25:59;0.95;;;0.45;;
25045;SDS011;13044;49.304;12.840;2023-08-07T09:28:34;1.10;;;0.63;;
25045;SDS011;13044;49.304;12.840;2023-08-07T09:31:01;0.60;;;0.52;;
25045;SDS011;13044;49.304;12.840;2023-08-07T09:33:32;1.35;;;0.73;;
25045;SDS011;13044;49.304;12.840;2023-08-07T09:36:00;0.60;;;0.60;;
25045;SDS011;13044;49.304;12.840;2023-08-07T09:38:29;0.60;;;0.60;;
25045;SDS011;13044;49.304;12.840;2023-08-07T09:41:00;0.68;;;0.60;;
25045;SDS011;13044;49.304;12.840;2023-08-07T09:43:33;0.80;;;0.63;;
25045;SDS011;13044;49.304;12.840;2023-08-07T09:46:05;2.42;;;0.80;;
25045;SDS011;13044;49.304;12.840;2023-08-07T09:48:40;0.95;;;0.47;;
25045;SDS011;13044;49.304;12.840;2023-08-07T09:51:09;0.60;;;0.60;;
25045;SDS011;13044;49.304;12.840;2023-08-07T09:53:37;0.55;;;0.50;;
25045;SDS011;13044;49.304;12.840;2023-08-07T09:56:05;0.70;;;0.45;;
25045;SDS011;13044;49.304;12.840;2023-08-07T09:58:32;0.60;;;0.60;;
25045;SDS011;13044;49.304;12.840;2023-08-07T10:01:00;4.80;;;3.85;;
25045;SDS011;13044;49.304;12.840;2023-08-07T10:03:30;4.82;;;4.32;;
25045;SDS011;13044;49.304;12.840;2023-08-07T10:05:58;2.90;;;2.70;;
25045;SDS011;13044;49.304;12.840;2023-08-07T10:08:25;1.50;;;1.40;;
25045;SDS011;13044;49.304;12.840;2023-08-07T10:10:52;1.00;;;0.90;;
25045;SDS011;13044;49.304;12.840;2023-08-07T10:13:19;0.55;;;0.55;;
25045;SDS011;13044;49.304;12.840;2023-08-07T10:16:04;1.15;;;1.05;;
25045;SDS011;13044;49.304;12.840;2023-08-07T10:18:32;0.57;;;0.55;;
25045;SDS011;13044;49.304;12.840;2023-08-07T10:21:01;0.50;;;0.50;;
25045;SDS011;13044;49.304;12.840;2023-08-07T10:23:30;1.00;;;0.57;;
25045;SDS011;13044;49.304;12.840;2023-08-07T10:26:01;1.30;;;0.60;;
25045;SDS011;13044;49.304;12.840;2023-08-07T10:28:33;0.55;;;0.55;;
25045;SDS011;13044;49.304;12.840;2023-08-07T10:31:06;0.55;;;0.50;;
25045;SDS011;13044;49.304;12.840;2023-08-07T10:33:34;0.73;;;0.73;;
25045;SDS011;13044;49.304;12.840;2023-08-07T10:36:01;1.48;;;1.33;;
25045;SDS011;13044;49.304;12.840;2023-08-07T10:38:36;0.65;;;0.65;;
25045;SDS011;13044;49.304;12.840;2023-08-07T10:41:07;0.70;;;0.60;;
25045;SDS011;13044;49.304;12.840;2023-08-07T10:43:36;0.40;;;0.40;;
25045;SDS011;13044;49.304;12.840;2023-08-07T10:46:12;0.43;;;0.43;;
25045;SDS011;13044;49.304;12.840;2023-08-07T10:48:43;1.33;;;0.70;;
25045;SDS011;13044;49.304;12.840;2023-08-07T10:51:18;0.63;;;0.40;;
25045;SDS011;13044;49.304;12.840;2023-08-07T10:53:48;0.65;;;0.65;;
25045;SDS011;13044;49.304;12.840;2023-08-07T10:56:38;1.65;;;0.60;;
25045;SDS011;13044;49.304;12.840;2023-08-07T10:59:07;1.30;;;0.80;;
25045;SDS011;13044;49.304;12.840;2023-08-07T11:01:40;0.65;;;0.65;;
25045;SDS011;13044;49.304;12.840;2023-08-07T11:04:09;0.82;;;0.60;;
25045;SDS011;13044;49.304;12.840;2023-08-07T11:06:41;0.83;;;0.67;;
25045;SDS011;13044;49.304;12.840;2023-08-07T11:09:10;0.65;;;0.65;;
25045;SDS011;13044;49.304;12.840;2023-08-07T11:11:45;0.82;;;0.77;;
25045;SDS011;13044;49.304;12.840;2023-08-07T11:14:17;0.50;;;0.45;;
25045;SDS011;13044;49.304;12.840;2023-08-07T11:16:46;1.05;;;0.75;;
25045;SDS011;13044;49.304;12.840;2023-08-07T11:19:14;1.42;;;1.05;;
25045;SDS011;13044;49.304;12.840;2023-08-07T11:21:43;1.17;;;1.00;;
25045;SDS011;13044;49.304;12.840;2023-08-07T11:24:14;0.98;;;0.70;;
25045;SDS011;13044;49.304;12.840;2023-08-07T11:26:45;2.05;;;0.90;;
25045;SDS011;13044;49.304;12.840;2023-08-07T11:29:16;0.60;;;0.60;;
25045;SDS011;13044;49.304;12.840;2023-08-07T11:31:45;1.30;;;0.80;;
25045;SDS011;13044;49.304;12.840;2023-08-07T11:34:12;1.75;;;0.73;;
25045;SDS011;13044;49.304;12.840;2023-08-07T11:36:40;0.80;;;0.80;;
25045;SDS011;13044;49.304;12.840;2023-08-07T11:39:09;0.65;;;0.65;;
25045;SDS011;13044;49.304;12.840;2023-08-07T11:41:37;0.77;;;0.77;;
25045;SDS011;13044;49.304;12.840;2023-08-07T11:44:04;1.60;;;0.95;;
25045;SDS011;13044;49.304;12.840;2023-08-07T11:46:33;0.77;;;0.77;;
25045;SDS011;13044;49.304;12.840;2023-08-07T11:49:02;0.80;;;0.77;;
25045;SDS011;13044;49.304;12.840;2023-08-07T11:51:33;0.75;;;0.75;;
25045;SDS011;13044;49.304;12.840;2023-08-07T11:54:01;0.80;;;0.80;;
25045;SDS011;13044;49.304;12.840;2023-08-07T11:56:29;1.00;;;0.82;;
25045;SDS011;13044;49.304;12.840;2023-08-07T11:58:56;2.15;;;0.80;;
25045;SDS011;13044;49.304;12.840;2023-08-07T12:01:24;1.38;;;1.10;;
25045;SDS011;13044;49.304;12.840;2023-08-07T12:06:32;0.80;;;0.80;;
25045;SDS011;13044;49.304;12.840;2023-08-07T12:09:00;0.70;;;0.70;;
25045;SDS011;13044;49.304;12.840;2023-08-07T12:11:29;1.98;;;1.00;;
25045;SDS011;13044;49.304;12.840;2023-08-07T12:13:59;1.52;;;1.05;;
25045;SDS011;13044;49.304;12.840;2023-08-07T12:16:32;1.58;;;0.82;;
25045;SDS011;13044;49.304;12.840;2023-08-07T12:21:28;0.80;;;0.80;;
25045;SDS011;13044;49.304;12.840;2023-08-07T12:23:55;1.13;;;0.90;;
25045;SDS011;13044;49.304;12.840;2023-08-07T12:26:22;0.50;;;0.50;;
25045;SDS011;13044;49.304;12.840;2023-08-07T12:28:49;0.70;;;0.70;;
25045;SDS011;13044;49.304;12.840;2023-08-07T12:31:17;1.30;;;0.60;;
25045;SDS011;13044;49.304;12.840;2023-08-07T12:33:44;0.65;;;0.57;;
25045;SDS011;13044;49.304;12.840;2023-08-07T12:36:11;0.80;;;0.80;;
25045;SDS011;13044;49.304;12.840;2023-08-07T12:38:43;0.70;;;0.70;;
25045;SDS011;13044;49.304;12.840;2023-08-07T12:41:10;2.95;;;0.80;;
25045;SDS011;13044;49.304;12.840;2023-08-07T12:43:40;0.52;;;0.52;;
25045;SDS011;13044;49.304;12.840;2023-08-07T12:46:07;1.63;;;0.70;;
25045;SDS011;13044;49.304;12.840;2023-08-07T12:48:37;0.90;;;0.80;;
25045;SDS011;13044;49.304;12.840;2023-08-07T12:51:05;0.90;;;0.80;;
25045;SDS011;13044;49.304;12.840;2023-08-07T12:53:32;0.90;;;0.90;;
25045;SDS011;13044;49.304;12.840;2023-08-07T12:55:59;2.03;;;1.02;;
25045;SDS011;13044;49.304;12.840;2023-08-07T12:58:26;1.48;;;1.33;;
25045;SDS011;13044;49.304;12.840;2023-08-07T13:00:55;1.58;;;1.48;;
25045;SDS011;13044;49.304;12.840;2023-08-07T13:03:23;1.45;;;1.33;;
25045;SDS011;13044;49.304;12.840;2023-08-07T13:05:50;1.42;;;1.33;;
25045;SDS011;13044;49.304;12.840;2023-08-07T13:08:16;1.63;;;1.40;;
25045;SDS011;13044;49.304;12.840;2023-08-07T13:10:44;1.70;;;1.30;;
25045;SDS011;13044;49.304;12.840;2023-08-07T13:13:15;1.15;;;1.13;;
25045;SDS011;13044;49.304;12.840;2023-08-07T13:15:42;1.15;;;1.05;;
25045;SDS011;13044;49.304;12.840;2023-08-07T13:18:09;1.42;;;1.30;;
25045;SDS011;13044;49.304;12.840;2023-08-07T13:20:36;2.53;;;1.40;;
25045;SDS011;13044;49.304;12.840;2023-08-07T13:23:03;1.80;;;1.70;;
25045;SDS011;13044;49.304;12.840;2023-08-07T13:25:32;3.20;;;1.50;;
25045;SDS011;13044;49.304;12.840;2023-08-07T13:27:59;2.10;;;1.90;;
25045;SDS011;13044;49.304;12.840;2023-08-07T13:30:27;2.70;;;1.75;;
25045;SDS011;13044;49.304;12.840;2023-08-07T13:33:01;2.35;;;1.70;;
25045;SDS011;13044;49.304;12.840;2023-08-07T13:35:29;2.10;;;1.90;;
25045;SDS011;13044;49.304;12.840;2023-08-07T13:37:55;2.13;;;1.92;;
25045;SDS011;13044;49.304;12.840;2023-08-07T13:40:22;3.63;;;1.40;;
25045;SDS011;13044;49.304;12.840;2023-08-07T13:42:49;1.90;;;1.80;;
25045;SDS011;13044;49.304;12.840;2023-08-07T13:45:16;1.60;;;1.50;;
25045;SDS011;13044;49.304;12.840;2023-08-07T13:47:43;2.00;;;1.80;;
25045;SDS011;13044;49.304;12.840;2023-08-07T13:50:10;2.60;;;2.40;;
25045;SDS011;13044;49.304;12.840;2023-08-07T13:52:39;4.35;;;3.28;;
25045;SDS011;13044;49.304;12.840;2023-08-07T13:55:06;4.95;;;4.07;;
25045;SDS011;13044;49.304;12.840;2023-08-07T13:57:35;3.53;;;2.95;;
25045;SDS011;13044;49.304;12.840;2023-08-07T14:00:02;3.20;;;2.90;;
25045;SDS011;13044;49.304;12.840;2023-08-07T14:02:30;2.80;;;1.73;;
25045;SDS011;13044;49.304;12.840;2023-08-07T14:04:58;5.70;;;2.67;;
25045;SDS011;13044;49.304;12.840;2023-08-07T14:07:25;3.45;;;2.45;;
25045;SDS011;13044;49.304;12.840;2023-08-07T14:09:52;4.43;;;2.13;;
25045;SDS011;13044;49.304;12.840;2023-08-07T14:12:19;2.85;;;1.98;;
25045;SDS011;13044;49.304;12.840;2023-08-07T14:14:45;2.85;;;1.85;;
25045;SDS011;13044;49.304;12.840;2023-08-07T14:17:12;4.80;;;1.77;;
25045;SDS011;13044;49.304;12.840;2023-08-07T14:19:39;1.50;;;1.40;;
25045;SDS011;13044;49.304;12.840;2023-08-07T14:22:06;1.50;;;1.40;;
25045;SDS011;13044;49.304;12.840;2023-08-07T14:24:33;3.15;;;1.60;;
25045;SDS011;13044;49.304;12.840;2023-08-07T14:27:00;2.90;;;1.40;;
25045;SDS011;13044;49.304;12.840;2023-08-07T14:29:27;1.60;;;1.50;;
25045;SDS011;13044;49.304;12.840;2023-08-07T14:31:54;1.50;;;1.38;;
25045;SDS011;13044;49.304;12.840;2023-08-07T14:34:20;1.73;;;1.40;;
25045;SDS011;13044;49.304;12.840;2023-08-07T14:36:47;4.65;;;1.40;;
25045;SDS011;13044;49.304;12.840;2023-08-07T14:39:15;1.40;;;1.30;;
25045;SDS011;13044;49.304;12.840;2023-08-07T14:41:42;2.55;;;1.80;;
25045;SDS011;13044;49.304;12.840;2023-08-07T14:44:08;1.92;;;1.58;;
25045;SDS011;13044;49.304;12.840;2023-08-07T14:46:35;3.00;;;1.98;;
25045;SDS011;13044;49.304;12.840;2023-08-07T14:49:02;2.92;;;1.80;;
25045;SDS011;13044;49.304;12.840;2023-08-07T14:51:29;3.08;;;1.40;;
25045;SDS011;13044;49.304;12.840;2023-08-07T14:53:56;2.05;;;1.63;;